Latest Weather Observations for Canterbury

IDN60801

Issued at 5:35 pm EDT Friday 24 October 2014 (issued every 30 minutes, with the page automatically refreshed every 10 minutes)

About weather observations | Map of weather stations | Latest weather observations for NSW | Other Formats
Station Details ID: 066194 Name: CANTERBURY RACECOURSE AWS Lat: -33.91 Lon: 151.11 Height: 3.0 m
Data from the previous 72 hours. | See also: Recent months at Canterbury
Date/Time
EDT
Temp
°C
App
Temp
°C
Dew
Point
Rel
Hum
%
Delta-T
°C
Wind Press
QNH
hPa
Press
MSL
hPa
Rain
since 9 am
mm
Dir
 
Spd
km/h
Gust
km/h
Spd
kts
Gust
kts
24/05:30pm 23.4 21.4 16.4 64 4.3 NE 22 35 12 19 - - 0.0
24/05:00pm 24.0 22.8 17.0 65 4.3 NE 19 32 10 17 - - 0.0
24/04:30pm 24.5 23.2 17.2 63 4.5 ENE 20 30 11 16 - - 0.0
24/04:00pm 24.5 23.1 17.0 63 4.6 NE 20 35 11 19 - - 0.0
24/03:30pm 24.9 22.8 17.1 62 4.8 E 24 33 13 18 - - 0.0
24/03:00pm 25.4 23.5 17.6 62 4.9 ENE 24 35 13 19 - - 0.0
24/02:30pm 26.3 25.3 17.6 58 5.5 E 19 28 10 15 - - 0.0
24/02:00pm 26.2 24.9 18.1 61 5.1 ENE 22 30 12 16 - - 0.0
24/01:30pm 26.7 26.4 18.3 60 5.3 E 17 26 9 14 - - 0.0
24/01:00pm 27.5 27.0 15.8 48 7.2 NE 13 20 7 11 - - 0.0
24/12:30pm 26.7 26.5 17.5 57 5.8 N 15 22 8 12 - - 0.0
24/12:00pm 24.7 24.3 17.2 63 4.7 N 15 20 8 11 - - 0.0
24/11:30am 24.0 23.9 17.0 65 4.3 N 13 22 7 12 - - 0.0
24/11:00am 22.5 23.8 17.0 71 3.4 N 6 11 3 6 - - 0.0
24/10:30am 21.6 23.5 16.8 74 2.9 NNE 2 7 1 4 - - 0.0
24/10:00am 21.4 21.1 16.4 73 3.0 NNW 13 17 7 9 - - 0.0
24/09:30am 22.0 22.4 18.2 79 2.4 NNW 13 20 7 11 - - 0.0
24/09:00am 20.9 20.9 17.1 79 2.3 NNW 13 20 7 11 - - 0.0
24/08:30am 19.8 20.3 17.4 86 1.5 NNW 11 13 6 7 - - 0.0
24/08:00am 19.3 20.5 17.3 88 1.2 NW 7 11 4 6 - - 0.0
24/07:30am 18.7 19.8 17.2 91 0.9 N 7 13 4 7 - - 0.0
24/07:00am 18.2 19.1 16.5 90 1.0 ESE 7 13 4 7 - - 0.0
24/06:30am 18.1 18.5 16.4 90 1.0 SSE 9 13 5 7 - - 0.0
24/06:00am 18.0 18.4 16.2 89 1.1 SSE 9 13 5 7 - - 0.0
24/05:30am 17.9 19.1 15.9 88 1.2 SE 4 13 2 7 - - 0.0
24/05:00am 18.2 18.9 16.0 87 1.3 SW 7 11 4 6 - - 0.0
24/04:30am 18.1 18.4 16.1 88 1.2 ENE 9 13 5 7 - - 0.0
24/04:00am 18.3 17.9 16.1 87 1.3 W 13 20 7 11 - - 0.0
24/03:30am 18.3 18.7 17.3 94 0.6 WSW 11 20 6 11 - - 0.0
24/03:00am 18.1 20.4 16.8 92 0.8 CALM 0 0 0 0 - - 0.0
24/02:30am 18.5 19.5 16.8 90 1.0 ENE 7 11 4 6 - - 0.0
24/02:00am 18.9 18.9 17.2 90 1.0 SSE 13 20 7 11 - - 0.0
24/01:30am 18.8 19.3 17.5 92 0.8 S 11 17 6 9 - - 0.0
24/01:00am 18.7 19.5 17.4 92 0.8 SSE 9 15 5 8 - - 0.0
24/12:30am 18.7 18.9 17.7 94 0.6 SSE 13 17 7 9 - - 0.0
24/12:00am 18.3 19.5 17.3 94 0.6 S 7 11 4 6 - - 0.0
 
Date/Time
EDT
Temp
°C
App
Temp
°C
Dew
Point
Rel
Hum
%
Delta-T
°C
Wind Press
QNH
hPa
Press
MSL
hPa
Rain
since 9 am
mm
Dir
 
Spd
km/h
Gust
km/h
Spd
kts
Gust
kts
23/11:30pm 17.9 20.0 16.2 90 1.0 CALM 0 6 0 3 - - 0.0
23/11:00pm 18.9 20.0 17.2 90 1.0 SSE 7 9 4 5 - - 0.0
23/10:30pm 18.7 20.0 17.2 91 0.9 SSW 6 9 3 5 - - 0.0
23/10:00pm 19.0 19.7 17.0 88 1.2 SE 9 11 5 6 - - 0.0
23/09:30pm 19.1 19.7 16.7 86 1.4 SE 9 13 5 7 - - 0.0
23/09:00pm 19.1 18.4 16.3 84 1.7 SE 15 19 8 10 - - 0.0
23/08:30pm 19.6 20.8 16.8 84 1.7 SSE 6 11 3 6 - - 0.0
23/08:00pm 19.9 20.8 16.5 81 2.0 S 7 9 4 5 - - 0.0
23/07:30pm 20.4 20.6 15.8 75 2.7 SSE 9 17 5 9 - - 0.0
23/07:00pm 21.2 21.0 15.7 71 3.3 SSE 11 15 6 8 - - 0.0
23/06:30pm 21.4 21.2 14.6 65 4.0 ESE 9 13 5 7 - - 0.0
23/06:00pm 22.4 21.3 14.3 60 4.7 SE 13 15 7 8 - - 0.0
23/05:30pm 23.5 22.2 14.8 58 5.2 SE 15 22 8 12 - - 0.0
23/05:00pm 23.6 21.2 14.3 56 5.5 SE 20 28 11 15 - - 0.0
23/04:30pm 24.5 22.9 15.1 55 5.6 SSE 17 26 9 14 - - 0.0
23/04:00pm 24.4 21.3 14.5 54 5.9 SE 24 32 13 17 - - 0.0
23/03:30pm 24.8 22.8 14.9 54 5.9 SE 19 26 10 14 - - 0.0
23/03:00pm 25.4 22.1 13.9 49 6.8 SE 24 33 13 18 - - 0.0
23/02:30pm 26.2 22.3 13.3 45 7.6 SE 26 33 14 18 - - 0.0
23/02:00pm 27.6 24.9 13.5 41 8.3 SE 20 28 11 15 - - 0.0
23/01:30pm 28.4 26.2 14.3 42 8.5 SE 19 28 10 15 - - 0.0
23/01:00pm 28.5 25.7 13.2 39 9.0 SE 20 22 11 12 - - 0.0
23/12:30pm 28.8 28.6 13.1 38 9.3 S 6 15 3 8 - - 0.0
23/12:00pm 27.9 27.4 12.7 39 8.9 WSW 7 15 4 8 - - 0.0
23/11:30am 26.7 28.0 15.1 49 7.0 E 2 7 1 4 - - 0.0
23/11:00am 25.4 25.4 14.2 50 6.6 N 7 15 4 8 - - 0.0
23/10:30am 23.5 23.7 14.8 58 5.2 NW 7 13 4 7 - - 0.0
23/10:00am 22.1 21.7 14.2 61 4.6 NW 9 15 5 8 - - 0.0
23/09:30am 20.6 19.9 13.3 63 4.2 W 9 13 5 7 - - 0.0
23/09:00am 19.4 19.2 13.1 67 3.6 WNW 6 9 3 5 - - 0.0
23/08:30am 18.0 17.9 13.3 74 2.7 NW 6 9 3 5 - - 0.0
23/08:00am 16.7 16.4 13.4 81 1.9 NW 7 13 4 7 - - 0.0
23/07:30am 15.1 15.3 13.0 87 1.2 W 4 11 2 6 - - 0.0
23/07:00am 13.4 14.2 12.6 95 0.4 CALM 0 0 0 0 - - 0.0
23/06:30am 12.4 13.0 11.8 96 0.3 CALM 0 0 0 0 - - 0.0
23/06:00am 12.2 12.7 11.6 96 0.3 CALM 0 0 0 0 - - 0.0
23/05:30am 12.0 12.1 11.4 96 0.3 NE 2 6 1 3 - - 0.0
23/05:00am 12.3 12.8 11.7 96 0.3 CALM 0 0 0 0 - - 0.0
23/04:30am 12.4 13.0 11.8 96 0.3 CALM 0 0 0 0 - - 0.0
23/04:00am 12.5 13.0 11.7 95 0.4 CALM 0 0 0 0 - - 0.0
23/03:30am 12.6 13.1 11.7 94 0.5 CALM 0 0 0 0 - - 0.0
23/03:04am 12.7 13.3 11.9 95 0.4 CALM 0 0 0 0 - - 0.0
23/03:00am 12.8 13.4 12.0 95 0.4 CALM 0 0 0 0 - - 0.0
23/02:45am 12.8 13.4 11.9 94 0.5 CALM 0 0 0 0 - - 0.0
23/02:30am 12.7 13.2 11.6 93 0.6 CALM 0 0 0 0 - - 0.0
23/02:00am 13.1 13.7 12.0 93 0.6 CALM 0 0 0 0 - - 0.0
23/01:30am 13.2 13.8 11.8 91 0.7 CALM 0 0 0 0 - - 0.0
23/01:00am 13.6 14.3 12.3 92 0.7 CALM 0 0 0 0 - - 0.0
23/12:30am 13.8 14.4 11.8 88 1.1 CALM 0 0 0 0 - - 0.0
23/12:00am 14.0 14.5 11.7 86 1.2 CALM 0 0 0 0 - - 0.0
 
Date/Time
EDT
Temp
°C
App
Temp
°C
Dew
Point
Rel
Hum
%
Delta-T
°C
Wind Press
QNH
hPa
Press
MSL
hPa
Rain
since 9 am
mm
Dir
 
Spd
km/h
Gust
km/h
Spd
kts
Gust
kts
22/11:30pm 14.6 15.0 11.4 81 1.7 CALM 0 0 0 0 - - 0.0
22/11:00pm 15.7 16.4 12.1 79 2.0 CALM 0 0 0 0 - - 0.0
22/10:30pm 17.3 16.8 12.2 72 2.8 WNW 6 7 3 4 - - 0.0
22/10:00pm 17.6 16.8 11.8 69 3.2 N 7 15 4 8 - - 0.0
22/09:30pm 18.0 16.2 12.2 69 3.2 NNE 13 20 7 11 - - 0.0
22/09:00pm 18.0 16.2 12.0 68 3.3 NNE 13 20 7 11 - - 0.0
22/08:30pm 18.2 15.1 11.7 66 3.6 NNE 19 35 10 19 - - 0.0
22/08:00pm 18.4 15.7 11.7 65 3.7 NNE 17 30 9 16 - - 0.0
22/07:30pm 18.5 15.4 11.6 64 3.8 NE 19 32 10 17 - - 0.0
22/07:00pm 18.7 15.6 11.5 63 3.9 NE 19 28 10 15 - - 0.0
22/06:30pm 19.2 15.6 11.7 62 4.1 NNE 22 32 12 17 - - 0.0
22/06:00pm 19.7 16.1 12.0 61 4.3 NNE 22 32 12 17 - - 0.0
22/05:30pm 20.4 17.1 11.6 57 4.9 NE 20 30 11 16 - - 0.0
22/05:00pm 20.6 17.4 11.8 57 4.9 NE 20 33 11 18 - - 0.0
22/04:30pm 21.0 16.9 11.6 55 5.2 ENE 24 32 13 17 - - 0.0
22/04:00pm 21.1 17.0 11.4 54 5.4 ENE 24 33 13 18 - - 0.0
22/03:30pm 21.0 16.9 11.3 54 5.4 ENE 24 35 13 19 - - 0.0
22/03:00pm 21.2 16.9 12.1 56 5.1 ENE 26 35 14 19 - - 0.0
22/02:30pm 21.4 18.4 12.5 57 5.0 ENE 20 32 11 17 - - 0.0
22/02:00pm 21.1 17.9 12.0 56 5.1 ENE 20 30 11 16 - - 0.0
22/01:30pm 21.1 18.1 12.0 56 5.1 NE 19 26 10 14 - - 0.0
22/01:00pm 21.0 18.8 10.8 52 5.6 NNE 13 22 7 12 - - 0.0
22/12:30pm 20.8 17.7 10.3 51 5.7 NNE 17 26 9 14 - - 0.0
22/12:00pm 19.7 15.9 9.0 50 5.6 N 19 24 10 13 - - 0.0
22/11:30am 19.6 16.4 10.0 54 5.1 NNE 17 26 9 14 - - 0.0
22/11:00am 19.3 15.5 9.2 52 5.3 NNE 19 30 10 16 - - 0.0
22/10:30am 18.9 15.5 9.1 53 5.1 N 17 28 9 15 - - 0.0
22/10:00am 18.6 15.1 8.8 53 5.1 N 17 24 9 13 - - 0.0
22/09:30am 18.4 15.6 8.4 52 5.2 NNE 13 20 7 11 - - 0.0
22/09:00am 18.3 15.9 8.8 54 4.9 N 11 15 6 8 - - 0.0
22/08:30am 17.0 15.5 8.4 57 4.4 NNW 6 9 3 5 - - 0.0
22/08:00am 15.7 15.6 9.4 66 3.3 CALM 0 0 0 0 - - 0.0
22/07:30am 15.1 15.1 9.9 71 2.7 CALM 0 0 0 0 - - 0.0
22/07:00am 14.5 14.1 9.9 74 2.4 WNW 2 7 1 4 - - 0.0
22/06:30am 14.1 14.1 9.9 76 2.2 CALM 0 0 0 0 - - 0.0
22/06:00am 13.8 14.0 10.4 80 1.8 CALM 0 6 0 3 - - 0.0
22/05:30am 13.8 14.0 10.6 81 1.7 CALM 0 0 0 0 - - 0.0
22/05:00am 13.7 13.8 10.1 79 1.9 CALM 0 0 0 0 - - 0.0
22/04:30am 13.8 13.8 9.8 77 2.1 CALM 0 6 0 3 - - 0.0
22/04:00am 13.8 12.8 10.2 79 1.9 N 6 7 3 4 - - 0.0
22/03:30am 13.5 12.4 9.9 79 1.9 W 6 7 3 4 - - 0.0
22/03:00am 13.3 13.3 9.7 79 1.8 CALM 0 0 0 0 - - 0.0
22/02:30am 13.2 13.0 9.1 76 2.1 CALM 0 0 0 0 - - 0.0
22/02:00am 12.9 12.4 9.4 79 1.8 ESE 2 9 1 5 - - 0.0
22/01:30am 12.8 12.4 8.1 73 2.3 CALM 0 0 0 0 - - 0.0
22/01:00am 14.5 13.8 8.7 68 2.9 SE 2 7 1 4 - - 0.0
22/12:30am 15.1 13.2 9.0 67 3.1 E 9 13 5 7 - - 0.0
22/12:00am 15.3 13.6 9.7 69 2.9 NE 9 15 5 8 - - 0.0
 
Date/Time
EDT
Temp
°C
App
Temp
°C
Dew
Point
Rel
Hum
%
Delta-T
°C
Wind Press
QNH
hPa
Press
MSL
hPa
Rain
since 9 am
mm
Dir
 
Spd
km/h
Gust
km/h
Spd
kts
Gust
kts
21/11:30pm 14.8 14.1 8.7 67 3.1 N 2 7 1 4 - - 0.0
21/11:00pm 15.4 14.8 8.9 65 3.3 NNE 2 7 1 4 - - 0.0
21/10:30pm 15.7 14.1 8.9 64 3.5 N 7 11 4 6 - - 0.0
21/10:00pm 16.0 13.9 8.2 60 3.9 NNE 9 15 5 8 - - 0.0
21/09:30pm 16.1 13.4 9.1 63 3.6 ENE 13 20 7 11 - - 0.0
21/09:00pm 16.2 14.6 8.7 61 3.8 NE 7 15 4 8 - - 0.0
21/08:30pm 16.2 13.4 8.4 60 4.0 NE 13 17 7 9 - - 0.0
21/08:00pm 16.2 13.7 8.4 60 4.0 NE 11 20 6 11 - - 0.0
21/07:30pm 16.2 13.8 8.7 61 3.8 ENE 11 15 6 8 - - 0.0
21/07:00pm 16.3 13.9 8.5 60 4.0 ENE 11 17 6 9 - - 0.0
21/06:30pm 16.5 14.0 8.0 57 4.3 E 11 15 6 8 - - 0.0
21/06:00pm 16.7 13.6 7.1 53 4.8 E 13 19 7 10 - - 0.0

Other Formats:

Comma delimited format used in spreadsheet applications
http://www.bom.gov.au/fwo/IDN60801/IDN60801.94766.axf

JavaScript Object Notation format (JSON) in row-major order
http://www.bom.gov.au/fwo/IDN60801/IDN60801.94766.json